Terminal Aerodrome Forecast
Issued by NWS El Paso, TX

Home | Current Version | Previous Version | Text Only | Print | Product List | Glossary On
Versions: 1 2 3 4 5 6 7 8 9 10 11 12 13 14 15 16 17
000
FTUS44 KEPZ 030603 AAA
TAFELP
TAF AMD
KELP 030603Z 0306/0406 33006KT P6SM SCT080 SCT120 SCT250
      TEMPO 0306/0309 3SM TSRA BKN040CB
     FM031600 22007KT P6SM FEW090 SCT130
     FM032100 28006KT P6SM SCT090 SCT130 BKN250
     FM040500 20006KT P6SM FEW090 FEW130 SCT250=

USA.gov is the U.S. government's official web portal to all federal, state and local government web resources and services.